sensor_id;sensor_type;location;lat;lon;timestamp;P1;durP1;ratioP1;P2;durP2;ratioP2
29026;SDS011;16120;48.608;9.092;2023-08-30T00:00:15;115.87;;;11.97;;
29026;SDS011;16120;48.608;9.092;2023-08-30T00:04:11;115.30;;;11.73;;
29026;SDS011;16120;48.608;9.092;2023-08-30T00:08:06;116.00;;;12.60;;
29026;SDS011;16120;48.608;9.092;2023-08-30T00:12:01;116.70;;;11.67;;
29026;SDS011;16120;48.608;9.092;2023-08-30T00:15:58;114.87;;;11.77;;
29026;SDS011;16120;48.608;9.092;2023-08-30T00:19:53;115.23;;;11.83;;
29026;SDS011;16120;48.608;9.092;2023-08-30T00:23:48;115.20;;;12.10;;
29026;SDS011;16120;48.608;9.092;2023-08-30T00:27:43;117.17;;;12.80;;
29026;SDS011;16120;48.608;9.092;2023-08-30T00:31:40;117.07;;;12.10;;
29026;SDS011;16120;48.608;9.092;2023-08-30T00:35:35;115.67;;;11.97;;
29026;SDS011;16120;48.608;9.092;2023-08-30T00:39:30;115.37;;;11.80;;
29026;SDS011;16120;48.608;9.092;2023-08-30T00:43:26;115.73;;;11.90;;
29026;SDS011;16120;48.608;9.092;2023-08-30T00:47:22;116.10;;;12.10;;
29026;SDS011;16120;48.608;9.092;2023-08-30T00:51:17;116.23;;;11.60;;
29026;SDS011;16120;48.608;9.092;2023-08-30T00:55:13;116.17;;;13.13;;
29026;SDS011;16120;48.608;9.092;2023-08-30T00:59:08;115.63;;;12.00;;
29026;SDS011;16120;48.608;9.092;2023-08-30T01:03:05;114.97;;;11.27;;
29026;SDS011;16120;48.608;9.092;2023-08-30T01:07:00;118.10;;;12.37;;
29026;SDS011;16120;48.608;9.092;2023-08-30T01:10:58;116.37;;;12.20;;
29026;SDS011;16120;48.608;9.092;2023-08-30T01:14:56;117.30;;;11.77;;
29026;SDS011;16120;48.608;9.092;2023-08-30T01:18:54;115.97;;;12.20;;
29026;SDS011;16120;48.608;9.092;2023-08-30T01:22:53;117.47;;;12.67;;
29026;SDS011;16120;48.608;9.092;2023-08-30T01:26:58;116.27;;;11.43;;
29026;SDS011;16120;48.608;9.092;2023-08-30T01:30:53;116.07;;;11.93;;
29026;SDS011;16120;48.608;9.092;2023-08-30T01:34:48;114.67;;;11.73;;
29026;SDS011;16120;48.608;9.092;2023-08-30T01:38:44;116.50;;;12.50;;
29026;SDS011;16120;48.608;9.092;2023-08-30T01:42:41;116.03;;;11.50;;
29026;SDS011;16120;48.608;9.092;2023-08-30T01:46:37;117.80;;;12.13;;
29026;SDS011;16120;48.608;9.092;2023-08-30T01:50:32;115.63;;;12.07;;
29026;SDS011;16120;48.608;9.092;2023-08-30T01:54:28;118.27;;;11.50;;
29026;SDS011;16120;48.608;9.092;2023-08-30T01:58:24;115.80;;;12.00;;
29026;SDS011;16120;48.608;9.092;2023-08-30T02:02:20;118.70;;;12.30;;
29026;SDS011;16120;48.608;9.092;2023-08-30T02:06:17;117.07;;;12.27;;
29026;SDS011;16120;48.608;9.092;2023-08-30T02:10:17;116.87;;;12.60;;
29026;SDS011;16120;48.608;9.092;2023-08-30T02:14:17;121.97;;;11.77;;
29026;SDS011;16120;48.608;9.092;2023-08-30T02:18:12;116.67;;;12.80;;
29026;SDS011;16120;48.608;9.092;2023-08-30T02:22:08;115.50;;;11.77;;
29026;SDS011;16120;48.608;9.092;2023-08-30T02:26:03;115.17;;;11.50;;
29026;SDS011;16120;48.608;9.092;2023-08-30T02:30:00;115.33;;;11.47;;
29026;SDS011;16120;48.608;9.092;2023-08-30T02:33:55;116.20;;;11.70;;
29026;SDS011;16120;48.608;9.092;2023-08-30T02:37:50;115.77;;;11.53;;
29026;SDS011;16120;48.608;9.092;2023-08-30T02:41:45;115.80;;;11.70;;
29026;SDS011;16120;48.608;9.092;2023-08-30T02:45:42;116.40;;;12.13;;
29026;SDS011;16120;48.608;9.092;2023-08-30T02:49:37;115.27;;;11.60;;
29026;SDS011;16120;48.608;9.092;2023-08-30T02:53:32;117.87;;;12.63;;
29026;SDS011;16120;48.608;9.092;2023-08-30T02:57:27;121.63;;;12.07;;
29026;SDS011;16120;48.608;9.092;2023-08-30T03:01:24;115.27;;;11.40;;
29026;SDS011;16120;48.608;9.092;2023-08-30T03:05:19;117.53;;;11.40;;
29026;SDS011;16120;48.608;9.092;2023-08-30T03:09:14;115.70;;;11.37;;
29026;SDS011;16120;48.608;9.092;2023-08-30T03:13:10;117.50;;;12.33;;
29026;SDS011;16120;48.608;9.092;2023-08-30T03:17:06;116.87;;;11.97;;
29026;SDS011;16120;48.608;9.092;2023-08-30T03:21:01;120.07;;;12.03;;
29026;SDS011;16120;48.608;9.092;2023-08-30T03:24:57;118.83;;;11.63;;
29026;SDS011;16120;48.608;9.092;2023-08-30T03:28:52;117.28;;;11.95;;
29026;SDS011;16120;48.608;9.092;2023-08-30T03:32:48;117.17;;;11.77;;
29026;SDS011;16120;48.608;9.092;2023-08-30T03:36:44;117.07;;;11.80;;
29026;SDS011;16120;48.608;9.092;2023-08-30T03:40:39;115.77;;;11.30;;
29026;SDS011;16120;48.608;9.092;2023-08-30T03:44:34;116.40;;;11.50;;
29026;SDS011;16120;48.608;9.092;2023-08-30T03:48:31;117.77;;;11.37;;
29026;SDS011;16120;48.608;9.092;2023-08-30T03:52:26;115.70;;;11.37;;
29026;SDS011;16120;48.608;9.092;2023-08-30T03:56:21;116.67;;;11.70;;
29026;SDS011;16120;48.608;9.092;2023-08-30T04:00:17;115.90;;;11.77;;
29026;SDS011;16120;48.608;9.092;2023-08-30T04:04:13;115.50;;;11.52;;
29026;SDS011;16120;48.608;9.092;2023-08-30T04:08:08;115.80;;;11.37;;
29026;SDS011;16120;48.608;9.092;2023-08-30T04:12:04;117.60;;;11.77;;
29026;SDS011;16120;48.608;9.092;2023-08-30T04:15:59;116.47;;;11.77;;
29026;SDS011;16120;48.608;9.092;2023-08-30T04:19:56;117.72;;;12.20;;
29026;SDS011;16120;48.608;9.092;2023-08-30T04:23:51;119.00;;;11.53;;
29026;SDS011;16120;48.608;9.092;2023-08-30T04:27:46;118.00;;;12.07;;
29026;SDS011;16120;48.608;9.092;2023-08-30T04:31:42;117.77;;;12.00;;
29026;SDS011;16120;48.608;9.092;2023-08-30T04:35:39;117.10;;;12.07;;
29026;SDS011;16120;48.608;9.092;2023-08-30T04:39:34;117.37;;;12.20;;
29026;SDS011;16120;48.608;9.092;2023-08-30T04:43:29;116.97;;;11.73;;
29026;SDS011;16120;48.608;9.092;2023-08-30T04:47:24;116.03;;;11.93;;
29026;SDS011;16120;48.608;9.092;2023-08-30T04:51:21;115.57;;;11.30;;
29026;SDS011;16120;48.608;9.092;2023-08-30T04:55:16;117.53;;;12.07;;
29026;SDS011;16120;48.608;9.092;2023-08-30T04:59:12;116.10;;;11.57;;
29026;SDS011;16120;48.608;9.092;2023-08-30T05:03:07;119.67;;;12.07;;
29026;SDS011;16120;48.608;9.092;2023-08-30T05:07:03;116.80;;;11.90;;
29026;SDS011;16120;48.608;9.092;2023-08-30T05:10:59;116.17;;;11.27;;
29026;SDS011;16120;48.608;9.092;2023-08-30T05:14:54;115.68;;;11.25;;
29026;SDS011;16120;48.608;9.092;2023-08-30T05:18:49;117.03;;;12.43;;
29026;SDS011;16120;48.608;9.092;2023-08-30T05:22:46;116.93;;;11.87;;
29026;SDS011;16120;48.608;9.092;2023-08-30T05:26:41;124.50;;;11.30;;
29026;SDS011;16120;48.608;9.092;2023-08-30T05:30:36;116.77;;;12.40;;
29026;SDS011;16120;48.608;9.092;2023-08-30T05:34:32;116.87;;;11.80;;
29026;SDS011;16120;48.608;9.092;2023-08-30T05:38:28;115.60;;;11.30;;
29026;SDS011;16120;48.608;9.092;2023-08-30T05:42:23;116.90;;;11.70;;
29026;SDS011;16120;48.608;9.092;2023-08-30T05:46:19;117.70;;;11.70;;
29026;SDS011;16120;48.608;9.092;2023-08-30T05:50:14;117.43;;;12.27;;
29026;SDS011;16120;48.608;9.092;2023-08-30T05:54:10;117.65;;;12.57;;
29026;SDS011;16120;48.608;9.092;2023-08-30T05:58:05;117.87;;;12.80;;
29026;SDS011;16120;48.608;9.092;2023-08-30T06:02:01;117.37;;;11.67;;
29026;SDS011;16120;48.608;9.092;2023-08-30T06:05:56;116.47;;;11.70;;
29026;SDS011;16120;48.608;9.092;2023-08-30T06:09:52;117.17;;;12.10;;
29026;SDS011;16120;48.608;9.092;2023-08-30T06:13:48;116.00;;;11.43;;
29026;SDS011;16120;48.608;9.092;2023-08-30T06:17:43;117.40;;;12.47;;
29026;SDS011;16120;48.608;9.092;2023-08-30T06:21:38;115.57;;;11.13;;
29026;SDS011;16120;48.608;9.092;2023-08-30T06:25:34;116.23;;;11.33;;
29026;SDS011;16120;48.608;9.092;2023-08-30T06:29:30;117.07;;;11.50;;
29026;SDS011;16120;48.608;9.092;2023-08-30T06:33:25;116.97;;;11.50;;
29026;SDS011;16120;48.608;9.092;2023-08-30T06:37:20;123.53;;;11.30;;
29026;SDS011;16120;48.608;9.092;2023-08-30T06:41:17;116.10;;;11.63;;
29026;SDS011;16120;48.608;9.092;2023-08-30T06:45:12;117.40;;;11.13;;
29026;SDS011;16120;48.608;9.092;2023-08-30T06:49:07;118.07;;;11.60;;
29026;SDS011;16120;48.608;9.092;2023-08-30T06:53:02;115.17;;;11.30;;
29026;SDS011;16120;48.608;9.092;2023-08-30T06:57:00;114.03;;;10.63;;
29026;SDS011;16120;48.608;9.092;2023-08-30T07:00:56;114.90;;;11.33;;
29026;SDS011;16120;48.608;9.092;2023-08-30T07:04:52;114.37;;;11.07;;
29026;SDS011;16120;48.608;9.092;2023-08-30T07:08:47;114.23;;;11.10;;
29026;SDS011;16120;48.608;9.092;2023-08-30T07:12:43;115.20;;;11.00;;
29026;SDS011;16120;48.608;9.092;2023-08-30T07:16:39;113.70;;;10.60;;
29026;SDS011;16120;48.608;9.092;2023-08-30T07:20:34;113.73;;;10.83;;
29026;SDS011;16120;48.608;9.092;2023-08-30T07:24:29;114.23;;;11.50;;
29026;SDS011;16120;48.608;9.092;2023-08-30T07:28:26;113.87;;;10.80;;
29026;SDS011;16120;48.608;9.092;2023-08-30T07:32:21;114.37;;;11.33;;
29026;SDS011;16120;48.608;9.092;2023-08-30T07:36:16;114.20;;;10.67;;
29026;SDS011;16120;48.608;9.092;2023-08-30T07:40:11;113.97;;;10.83;;
29026;SDS011;16120;48.608;9.092;2023-08-30T07:44:08;112.73;;;10.70;;
29026;SDS011;16120;48.608;9.092;2023-08-30T07:48:03;115.17;;;11.00;;
29026;SDS011;16120;48.608;9.092;2023-08-30T07:51:59;113.57;;;10.73;;
29026;SDS011;16120;48.608;9.092;2023-08-30T07:55:54;113.70;;;11.20;;
29026;SDS011;16120;48.608;9.092;2023-08-30T07:59:50;113.60;;;11.10;;
29026;SDS011;16120;48.608;9.092;2023-08-30T08:03:46;113.87;;;10.87;;
29026;SDS011;16120;48.608;9.092;2023-08-30T08:07:41;112.85;;;11.32;;
29026;SDS011;16120;48.608;9.092;2023-08-30T08:11:36;113.00;;;10.83;;
29026;SDS011;16120;48.608;9.092;2023-08-30T08:15:33;113.40;;;10.83;;
29026;SDS011;16120;48.608;9.092;2023-08-30T08:19:28;112.47;;;10.67;;
29026;SDS011;16120;48.608;9.092;2023-08-30T08:23:23;112.87;;;10.70;;
29026;SDS011;16120;48.608;9.092;2023-08-30T08:27:19;122.07;;;11.50;;
29026;SDS011;16120;48.608;9.092;2023-08-30T08:31:15;113.60;;;11.80;;
29026;SDS011;16120;48.608;9.092;2023-08-30T08:35:10;112.70;;;11.70;;
29026;SDS011;16120;48.608;9.092;2023-08-30T08:39:06;112.07;;;10.67;;
29026;SDS011;16120;48.608;9.092;2023-08-30T08:43:01;111.37;;;10.30;;
29026;SDS011;16120;48.608;9.092;2023-08-30T08:46:59;112.17;;;10.90;;
29026;SDS011;16120;48.608;9.092;2023-08-30T08:50:55;114.03;;;10.70;;
29026;SDS011;16120;48.608;9.092;2023-08-30T08:54:50;111.00;;;10.53;;
29026;SDS011;16120;48.608;9.092;2023-08-30T08:58:46;111.67;;;10.77;;
29026;SDS011;16120;48.608;9.092;2023-08-30T09:02:43;111.27;;;10.50;;
29026;SDS011;16120;48.608;9.092;2023-08-30T09:06:38;110.97;;;10.27;;
29026;SDS011;16120;48.608;9.092;2023-08-30T09:10:34;110.70;;;10.33;;
29026;SDS011;16120;48.608;9.092;2023-08-30T09:14:29;110.60;;;10.60;;
29026;SDS011;16120;48.608;9.092;2023-08-30T09:18:26;110.50;;;10.50;;
29026;SDS011;16120;48.608;9.092;2023-08-30T09:22:21;109.97;;;10.10;;
29026;SDS011;16120;48.608;9.092;2023-08-30T09:26:16;109.60;;;10.07;;
29026;SDS011;16120;48.608;9.092;2023-08-30T09:30:13;112.10;;;9.87;;
29026;SDS011;16120;48.608;9.092;2023-08-30T09:34:09;111.37;;;9.93;;
29026;SDS011;16120;48.608;9.092;2023-08-30T09:38:05;109.27;;;9.70;;
29026;SDS011;16120;48.608;9.092;2023-08-30T09:42:00;110.07;;;10.13;;
29026;SDS011;16120;48.608;9.092;2023-08-30T09:45:56;109.77;;;10.13;;
29026;SDS011;16120;48.608;9.092;2023-08-30T09:49:54;109.73;;;9.67;;
29026;SDS011;16120;48.608;9.092;2023-08-30T09:53:49;108.77;;;9.57;;
29026;SDS011;16120;48.608;9.092;2023-08-30T09:57:46;108.87;;;9.47;;
29026;SDS011;16120;48.608;9.092;2023-08-30T10:01:43;108.50;;;9.57;;
29026;SDS011;16120;48.608;9.092;2023-08-30T10:05:40;108.27;;;9.90;;
29026;SDS011;16120;48.608;9.092;2023-08-30T10:09:36;108.57;;;9.67;;
29026;SDS011;16120;48.608;9.092;2023-08-30T10:13:33;108.90;;;10.47;;
29026;SDS011;16120;48.608;9.092;2023-08-30T10:17:31;108.20;;;9.97;;
29026;SDS011;16120;48.608;9.092;2023-08-30T10:21:28;109.27;;;10.80;;
29026;SDS011;16120;48.608;9.092;2023-08-30T10:25:25;109.00;;;10.43;;
29026;SDS011;16120;48.608;9.092;2023-08-30T10:29:21;107.73;;;9.70;;
29026;SDS011;16120;48.608;9.092;2023-08-30T10:33:17;115.17;;;9.60;;
29026;SDS011;16120;48.608;9.092;2023-08-30T10:37:13;109.30;;;10.13;;
29026;SDS011;16120;48.608;9.092;2023-08-30T10:41:08;107.37;;;10.33;;
29026;SDS011;16120;48.608;9.092;2023-08-30T10:45:04;107.20;;;9.53;;
29026;SDS011;16120;48.608;9.092;2023-08-30T10:49:09;106.77;;;9.57;;
29026;SDS011;16120;48.608;9.092;2023-08-30T10:53:13;108.30;;;10.70;;
29026;SDS011;16120;48.608;9.092;2023-08-30T10:57:12;106.50;;;9.30;;
29026;SDS011;16120;48.608;9.092;2023-08-30T11:01:09;107.00;;;9.97;;
29026;SDS011;16120;48.608;9.092;2023-08-30T11:05:05;106.03;;;9.63;;
29026;SDS011;16120;48.608;9.092;2023-08-30T11:09:02;107.80;;;10.13;;
29026;SDS011;16120;48.608;9.092;2023-08-30T11:12:57;104.97;;;9.33;;
29026;SDS011;16120;48.608;9.092;2023-08-30T11:16:53;105.77;;;9.20;;
29026;SDS011;16120;48.608;9.092;2023-08-30T11:20:48;105.07;;;9.60;;
29026;SDS011;16120;48.608;9.092;2023-08-30T11:24:49;105.40;;;9.37;;
29026;SDS011;16120;48.608;9.092;2023-08-30T11:28:44;103.73;;;8.40;;
29026;SDS011;16120;48.608;9.092;2023-08-30T11:32:40;105.40;;;8.93;;
29026;SDS011;16120;48.608;9.092;2023-08-30T11:36:35;106.20;;;9.60;;
29026;SDS011;16120;48.608;9.092;2023-08-30T11:40:33;106.27;;;8.53;;
29026;SDS011;16120;48.608;9.092;2023-08-30T11:44:29;106.97;;;8.57;;
29026;SDS011;16120;48.608;9.092;2023-08-30T11:48:24;106.00;;;9.40;;
29026;SDS011;16120;48.608;9.092;2023-08-30T11:52:19;104.60;;;8.20;;
29026;SDS011;16120;48.608;9.092;2023-08-30T11:56:16;106.67;;;8.33;;
29026;SDS011;16120;48.608;9.092;2023-08-30T12:00:12;106.37;;;8.90;;
29026;SDS011;16120;48.608;9.092;2023-08-30T12:04:08;104.93;;;8.23;;
29026;SDS011;16120;48.608;9.092;2023-08-30T12:08:04;104.87;;;8.73;;
29026;SDS011;16120;48.608;9.092;2023-08-30T12:12:06;105.37;;;9.43;;
29026;SDS011;16120;48.608;9.092;2023-08-30T12:16:01;105.40;;;9.80;;
29026;SDS011;16120;48.608;9.092;2023-08-30T12:19:57;106.10;;;9.13;;
29026;SDS011;16120;48.608;9.092;2023-08-30T12:23:59;105.33;;;9.20;;
29026;SDS011;16120;48.608;9.092;2023-08-30T12:27:55;108.07;;;9.20;;
29026;SDS011;16120;48.608;9.092;2023-08-30T12:31:51;106.97;;;8.83;;
29026;SDS011;16120;48.608;9.092;2023-08-30T12:35:46;106.90;;;9.20;;
29026;SDS011;16120;48.608;9.092;2023-08-30T12:39:41;107.30;;;9.17;;
29026;SDS011;16120;48.608;9.092;2023-08-30T12:43:38;107.53;;;10.03;;
29026;SDS011;16120;48.608;9.092;2023-08-30T12:47:33;108.17;;;9.07;;
29026;SDS011;16120;48.608;9.092;2023-08-30T12:51:28;107.70;;;10.20;;
29026;SDS011;16120;48.608;9.092;2023-08-30T12:55:23;107.80;;;8.83;;
29026;SDS011;16120;48.608;9.092;2023-08-30T12:59:20;107.50;;;8.48;;
29026;SDS011;16120;48.608;9.092;2023-08-30T13:03:15;107.60;;;8.97;;
29026;SDS011;16120;48.608;9.092;2023-08-30T13:07:10;109.30;;;10.07;;
29026;SDS011;16120;48.608;9.092;2023-08-30T13:11:05;106.57;;;9.50;;
29026;SDS011;16120;48.608;9.092;2023-08-30T13:15:02;106.97;;;8.70;;
29026;SDS011;16120;48.608;9.092;2023-08-30T13:18:57;107.20;;;9.40;;
29026;SDS011;16120;48.608;9.092;2023-08-30T13:22:52;106.47;;;8.73;;
29026;SDS011;16120;48.608;9.092;2023-08-30T13:26:48;107.87;;;8.60;;
29026;SDS011;16120;48.608;9.092;2023-08-30T13:30:45;107.27;;;8.60;;
29026;SDS011;16120;48.608;9.092;2023-08-30T13:34:40;106.40;;;9.03;;
29026;SDS011;16120;48.608;9.092;2023-08-30T13:38:35;106.87;;;9.07;;
29026;SDS011;16120;48.608;9.092;2023-08-30T13:42:30;106.77;;;9.37;;
29026;SDS011;16120;48.608;9.092;2023-08-30T13:46:27;106.83;;;8.90;;
29026;SDS011;16120;48.608;9.092;2023-08-30T13:50:22;107.37;;;8.70;;
29026;SDS011;16120;48.608;9.092;2023-08-30T13:54:17;107.20;;;8.50;;
29026;SDS011;16120;48.608;9.092;2023-08-30T13:58:12;107.20;;;8.47;;
29026;SDS011;16120;48.608;9.092;2023-08-30T14:02:09;105.97;;;8.70;;
29026;SDS011;16120;48.608;9.092;2023-08-30T14:06:04;107.27;;;8.97;;
29026;SDS011;16120;48.608;9.092;2023-08-30T14:09:59;106.00;;;8.67;;
29026;SDS011;16120;48.608;9.092;2023-08-30T14:13:55;106.47;;;8.57;;
29026;SDS011;16120;48.608;9.092;2023-08-30T14:17:51;105.90;;;8.50;;
29026;SDS011;16120;48.608;9.092;2023-08-30T14:21:46;106.33;;;8.63;;
29026;SDS011;16120;48.608;9.092;2023-08-30T14:25:42;105.90;;;8.50;;
29026;SDS011;16120;48.608;9.092;2023-08-30T14:29:37;106.17;;;8.83;;
29026;SDS011;16120;48.608;9.092;2023-08-30T14:33:33;106.57;;;8.80;;
29026;SDS011;16120;48.608;9.092;2023-08-30T14:37:29;106.43;;;8.70;;
29026;SDS011;16120;48.608;9.092;2023-08-30T14:41:24;104.40;;;8.33;;
29026;SDS011;16120;48.608;9.092;2023-08-30T14:45:19;105.60;;;9.00;;
29026;SDS011;16120;48.608;9.092;2023-08-30T14:49:15;106.17;;;8.80;;
29026;SDS011;16120;48.608;9.092;2023-08-30T14:53:11;104.80;;;7.70;;
29026;SDS011;16120;48.608;9.092;2023-08-30T14:57:06;106.07;;;8.40;;
29026;SDS011;16120;48.608;9.092;2023-08-30T15:01:01;106.80;;;9.20;;
29026;SDS011;16120;48.608;9.092;2023-08-30T15:05:03;105.37;;;8.30;;
29026;SDS011;16120;48.608;9.092;2023-08-30T15:09:00;105.93;;;7.97;;
29026;SDS011;16120;48.608;9.092;2023-08-30T15:12:55;106.37;;;9.17;;
29026;SDS011;16120;48.608;9.092;2023-08-30T15:16:50;104.75;;;8.45;;
29026;SDS011;16120;48.608;9.092;2023-08-30T15:20:47;105.37;;;7.93;;
29026;SDS011;16120;48.608;9.092;2023-08-30T15:24:42;105.57;;;8.47;;
29026;SDS011;16120;48.608;9.092;2023-08-30T15:28:37;105.10;;;8.70;;
29026;SDS011;16120;48.608;9.092;2023-08-30T15:32:32;104.83;;;8.73;;
29026;SDS011;16120;48.608;9.092;2023-08-30T15:36:29;105.30;;;8.40;;
29026;SDS011;16120;48.608;9.092;2023-08-30T15:40:24;103.97;;;8.10;;
29026;SDS011;16120;48.608;9.092;2023-08-30T15:44:19;104.60;;;8.77;;
29026;SDS011;16120;48.608;9.092;2023-08-30T15:48:15;103.87;;;8.13;;
29026;SDS011;16120;48.608;9.092;2023-08-30T15:52:11;105.00;;;8.63;;
29026;SDS011;16120;48.608;9.092;2023-08-30T15:56:06;104.10;;;8.00;;
29026;SDS011;16120;48.608;9.092;2023-08-30T16:00:02;103.67;;;7.63;;
29026;SDS011;16120;48.608;9.092;2023-08-30T16:03:57;103.40;;;7.60;;
29026;SDS011;16120;48.608;9.092;2023-08-30T16:07:54;105.30;;;8.00;;
29026;SDS011;16120;48.608;9.092;2023-08-30T16:11:49;104.50;;;8.40;;
29026;SDS011;16120;48.608;9.092;2023-08-30T16:15:44;105.07;;;7.97;;
29026;SDS011;16120;48.608;9.092;2023-08-30T16:19:39;106.95;;;8.63;;
29026;SDS011;16120;48.608;9.092;2023-08-30T16:23:36;104.27;;;8.57;;
29026;SDS011;16120;48.608;9.092;2023-08-30T16:27:31;104.50;;;8.37;;
29026;SDS011;16120;48.608;9.092;2023-08-30T16:31:29;104.00;;;7.77;;
29026;SDS011;16120;48.608;9.092;2023-08-30T16:35:25;104.70;;;8.60;;
29026;SDS011;16120;48.608;9.092;2023-08-30T16:39:21;103.00;;;7.80;;
29026;SDS011;16120;48.608;9.092;2023-08-30T16:43:16;106.03;;;7.87;;
29026;SDS011;16120;48.608;9.092;2023-08-30T16:47:12;103.30;;;8.00;;
29026;SDS011;16120;48.608;9.092;2023-08-30T16:51:07;103.73;;;7.67;;
29026;SDS011;16120;48.608;9.092;2023-08-30T16:55:04;103.90;;;8.07;;
29026;SDS011;16120;48.608;9.092;2023-08-30T16:58:59;103.90;;;8.37;;
29026;SDS011;16120;48.608;9.092;2023-08-30T17:02:54;104.47;;;7.90;;
29026;SDS011;16120;48.608;9.092;2023-08-30T17:06:49;104.00;;;8.60;;
29026;SDS011;16120;48.608;9.092;2023-08-30T17:10:46;103.57;;;8.60;;
29026;SDS011;16120;48.608;9.092;2023-08-30T17:14:41;104.80;;;8.00;;
29026;SDS011;16120;48.608;9.092;2023-08-30T17:18:37;104.67;;;8.33;;
29026;SDS011;16120;48.608;9.092;2023-08-30T17:22:33;106.07;;;8.00;;
29026;SDS011;16120;48.608;9.092;2023-08-30T17:26:38;103.90;;;7.63;;
29026;SDS011;16120;48.608;9.092;2023-08-30T17:30:33;103.50;;;7.70;;
29026;SDS011;16120;48.608;9.092;2023-08-30T17:34:28;104.00;;;7.63;;
29026;SDS011;16120;48.608;9.092;2023-08-30T17:38:23;108.40;;;8.77;;
29026;SDS011;16120;48.608;9.092;2023-08-30T17:42:21;105.40;;;8.20;;
29026;SDS011;16120;48.608;9.092;2023-08-30T17:46:16;106.27;;;8.40;;
29026;SDS011;16120;48.608;9.092;2023-08-30T17:50:11;105.27;;;8.00;;
29026;SDS011;16120;48.608;9.092;2023-08-30T17:54:07;107.90;;;8.73;;
29026;SDS011;16120;48.608;9.092;2023-08-30T17:58:05;105.40;;;7.90;;
29026;SDS011;16120;48.608;9.092;2023-08-30T18:02:00;104.40;;;8.00;;
29026;SDS011;16120;48.608;9.092;2023-08-30T18:05:59;105.80;;;8.30;;
29026;SDS011;16120;48.608;9.092;2023-08-30T18:09:54;106.20;;;8.50;;
29026;SDS011;16120;48.608;9.092;2023-08-30T18:13:51;106.60;;;8.73;;
29026;SDS011;16120;48.608;9.092;2023-08-30T18:17:46;106.40;;;8.57;;
29026;SDS011;16120;48.608;9.092;2023-08-30T18:21:41;107.17;;;8.63;;
29026;SDS011;16120;48.608;9.092;2023-08-30T18:25:36;106.83;;;8.50;;
29026;SDS011;16120;48.608;9.092;2023-08-30T18:29:33;108.30;;;8.80;;
29026;SDS011;16120;48.608;9.092;2023-08-30T18:33:29;107.80;;;8.90;;
29026;SDS011;16120;48.608;9.092;2023-08-30T18:37:24;111.63;;;9.20;;
29026;SDS011;16120;48.608;9.092;2023-08-30T18:41:20;109.07;;;9.20;;
29026;SDS011;16120;48.608;9.092;2023-08-30T18:45:16;107.75;;;8.95;;
29026;SDS011;16120;48.608;9.092;2023-08-30T18:49:12;106.63;;;9.00;;
29026;SDS011;16120;48.608;9.092;2023-08-30T18:53:07;110.30;;;10.43;;
29026;SDS011;16120;48.608;9.092;2023-08-30T18:57:02;107.37;;;8.73;;
29026;SDS011;16120;48.608;9.092;2023-08-30T19:01:00;108.03;;;9.33;;
29026;SDS011;16120;48.608;9.092;2023-08-30T19:04:55;112.40;;;9.77;;
29026;SDS011;16120;48.608;9.092;2023-08-30T19:08:50;108.67;;;9.10;;
29026;SDS011;16120;48.608;9.092;2023-08-30T19:12:45;110.10;;;9.07;;
29026;SDS011;16120;48.608;9.092;2023-08-30T19:16:42;110.17;;;9.50;;
29026;SDS011;16120;48.608;9.092;2023-08-30T19:20:37;109.97;;;9.47;;
29026;SDS011;16120;48.608;9.092;2023-08-30T19:24:32;111.50;;;10.73;;
29026;SDS011;16120;48.608;9.092;2023-08-30T19:28:28;109.37;;;9.20;;
29026;SDS011;16120;48.608;9.092;2023-08-30T19:32:24;110.17;;;9.53;;
29026;SDS011;16120;48.608;9.092;2023-08-30T19:36:19;112.10;;;10.13;;
29026;SDS011;16120;48.608;9.092;2023-08-30T19:40:16;110.40;;;10.30;;
29026;SDS011;16120;48.608;9.092;2023-08-30T19:44:11;109.57;;;9.70;;
29026;SDS011;16120;48.608;9.092;2023-08-30T19:48:08;110.20;;;9.80;;
29026;SDS011;16120;48.608;9.092;2023-08-30T19:52:03;110.03;;;10.00;;
29026;SDS011;16120;48.608;9.092;2023-08-30T19:55:58;116.57;;;10.17;;
29026;SDS011;16120;48.608;9.092;2023-08-30T19:59:54;110.37;;;9.73;;
29026;SDS011;16120;48.608;9.092;2023-08-30T20:03:50;110.40;;;10.30;;
29026;SDS011;16120;48.608;9.092;2023-08-30T20:07:46;112.03;;;9.83;;
29026;SDS011;16120;48.608;9.092;2023-08-30T20:11:41;112.57;;;10.10;;
29026;SDS011;16120;48.608;9.092;2023-08-30T20:15:36;111.07;;;9.98;;
29026;SDS011;16120;48.608;9.092;2023-08-30T20:19:33;110.57;;;10.00;;
29026;SDS011;16120;48.608;9.092;2023-08-30T20:23:28;110.90;;;9.90;;
29026;SDS011;16120;48.608;9.092;2023-08-30T20:27:23;110.17;;;9.60;;
29026;SDS011;16120;48.608;9.092;2023-08-30T20:31:18;111.40;;;10.40;;
29026;SDS011;16120;48.608;9.092;2023-08-30T20:35:15;109.97;;;9.90;;
29026;SDS011;16120;48.608;9.092;2023-08-30T20:39:10;109.90;;;9.13;;
29026;SDS011;16120;48.608;9.092;2023-08-30T20:43:05;111.37;;;9.57;;
29026;SDS011;16120;48.608;9.092;2023-08-30T20:47:01;110.55;;;9.68;;
29026;SDS011;16120;48.608;9.092;2023-08-30T20:50:58;110.03;;;9.13;;
29026;SDS011;16120;48.608;9.092;2023-08-30T20:54:53;110.40;;;10.10;;
29026;SDS011;16120;48.608;9.092;2023-08-30T20:58:48;111.03;;;10.00;;
29026;SDS011;16120;48.608;9.092;2023-08-30T21:02:43;111.20;;;10.23;;
29026;SDS011;16120;48.608;9.092;2023-08-30T21:06:40;115.13;;;10.83;;
29026;SDS011;16120;48.608;9.092;2023-08-30T21:10:35;111.40;;;10.27;;
29026;SDS011;16120;48.608;9.092;2023-08-30T21:14:30;110.57;;;9.40;;
29026;SDS011;16120;48.608;9.092;2023-08-30T21:18:25;111.30;;;10.03;;
29026;SDS011;16120;48.608;9.092;2023-08-30T21:22:22;111.20;;;9.90;;
29026;SDS011;16120;48.608;9.092;2023-08-30T21:26:17;111.80;;;10.20;;
29026;SDS011;16120;48.608;9.092;2023-08-30T21:30:12;111.50;;;10.10;;
29026;SDS011;16120;48.608;9.092;2023-08-30T21:34:08;112.00;;;10.17;;
29026;SDS011;16120;48.608;9.092;2023-08-30T21:38:04;112.97;;;10.33;;
29026;SDS011;16120;48.608;9.092;2023-08-30T21:42:00;110.80;;;10.53;;
29026;SDS011;16120;48.608;9.092;2023-08-30T21:45:55;112.17;;;10.50;;
29026;SDS011;16120;48.608;9.092;2023-08-30T21:49:50;111.13;;;10.17;;
29026;SDS011;16120;48.608;9.092;2023-08-30T21:53:47;112.73;;;11.00;;
29026;SDS011;16120;48.608;9.092;2023-08-30T21:57:42;111.90;;;10.40;;
29026;SDS011;16120;48.608;9.092;2023-08-30T22:01:37;113.50;;;10.27;;
29026;SDS011;16120;48.608;9.092;2023-08-30T22:05:33;111.27;;;9.70;;
29026;SDS011;16120;48.608;9.092;2023-08-30T22:09:29;111.57;;;10.27;;
29026;SDS011;16120;48.608;9.092;2023-08-30T22:13:24;111.37;;;10.17;;
29026;SDS011;16120;48.608;9.092;2023-08-30T22:17:20;111.03;;;9.90;;
29026;SDS011;16120;48.608;9.092;2023-08-30T22:21:15;112.10;;;9.97;;
29026;SDS011;16120;48.608;9.092;2023-08-30T22:25:12;110.70;;;9.90;;
29026;SDS011;16120;48.608;9.092;2023-08-30T22:29:09;111.57;;;10.00;;
29026;SDS011;16120;48.608;9.092;2023-08-30T22:33:04;112.67;;;9.57;;
29026;SDS011;16120;48.608;9.092;2023-08-30T22:36:59;111.70;;;9.07;;
29026;SDS011;16120;48.608;9.092;2023-08-30T22:40:56;110.67;;;8.97;;
29026;SDS011;16120;48.608;9.092;2023-08-30T22:44:51;112.87;;;8.93;;